• Join FlightAware (Why Join?)
  • Login
  • US Flag 
12:52PM EDT


 

Airport Tracker/Info


-or-


 

Live Flight TrackerFlight Track Log ✈ ASQ4577 ✈ 21-May-2013 ✈ KDFW - KCLE

Flight Track Log - Related Links

Times and Time Zones

All times are in EDT time to prevent confusion due to time zone crossing. See the ASQ4577 flight status page for this flight to view local times or setup timezone preferences in your user account.

Time Position Orientation Groundspeed Altitude Reporting Facility
EDT Latitude Longitude Course Direction KTS MPH feet Rate Location/Type
05:16PM 32.9167 -97.0333 16° North 167 192 1,500  Level Dallas / Fort Worth TRACON
05:17PM 32.9667 -97.0167 16° North 208 239 3,000 1,560 Climbing Dallas / Fort Worth TRACON
05:20PM 33.1250 -97.0289 356° North 258 297 6,800 1,620 Climbing Fort Worth Center
05:21PM 33.1981 -97.0386 354° North 279 321 8,500 1,740 Climbing Fort Worth Center
05:22PM 33.2878 -97.0506 354° North 294 338 10,300 1,620 Climbing Fort Worth Center
05:23PM 33.3778 -97.0603 355° North 315 362 11,800 1,320 Climbing Fort Worth Center
05:24PM 33.4611 -97.0697 355° North 321 369 13,000 1,260 Climbing Fort Worth Center
05:25PM 33.5678 -97.0819 355° North 339 390 14,400 1,260 Climbing Fort Worth Center
05:26PM 33.6553 -97.0892 356° North 352 405 15,600 1,260 Climbing Fort Worth Center
05:27PM 33.7703 -97.0986 356° North 364 419 17,000 1,200 Climbing Fort Worth Center
05:28PM 33.8661 -97.1108 354° North 376 433 18,000 1,200 Climbing Fort Worth Center
05:29PM 33.9706 -97.1206 356° North 376 433 19,500 1,380 Climbing Fort Worth Center
05:30PM 34.0833 -97.1175 North 387 445 20,800 1,260 Climbing Fort Worth Center
05:31PM 34.1708 -97.0797 20° North 387 445 22,000 1,320 Climbing Fort Worth Center
05:32PM 34.3064 -97.0289 17° North 406 467 23,500 1,380 Climbing Fort Worth Center
05:33PM 34.4189 -96.9831 19° North 417 480 24,800 1,260 Climbing Fort Worth Center
05:34PM 34.5039 -96.8869 43° Northeast 413 475 26,100 1,200 Climbing Fort Worth Center
05:35PM 34.5431 -96.7581 70° East 386 444 27,300 1,200 Climbing Fort Worth Center
05:36PM 34.5819 -96.6317 69° East 386 444 28,600 1,200 Climbing Fort Worth Center
05:37PM 34.6186 -96.5075 70° East 386 444 29,800 1,080 Climbing Fort Worth Center
05:38PM 34.6533 -96.3861 71° East 386 444 30,800 960 Climbing Fort Worth Center
05:39PM 34.6878 -96.2669 71° East 381 438 31,800 900 Climbing Fort Worth Center
05:40PM 34.7261 -96.1478 69° East 381 438 32,700 900 Climbing Fort Worth Center
05:41PM 34.7603 -96.0311 70° East 370 426 33,700 960 Climbing Fort Worth Center
05:42PM 34.7944 -95.9142 70° East 365 420 34,700 600 Climbing Fort Worth Center
05:43PM 34.8286 -95.7947 71° East 365 420 35,000 60 Climbing Fort Worth Center
05:45PM 34.9033 -95.5503 69° East 376 433 35,000  Level Memphis Center
05:46PM 34.9422 -95.4183 70° East 395 455 35,000  Level Memphis Center
05:47PM 34.9814 -95.2764 71° East 417 480 35,000  Level Memphis Center
05:48PM 35.0225 -95.1267 71° East 445 512 35,000  Level Memphis Center
05:49PM 35.0658 -94.9769 70° East 458 527 35,000  Level Memphis Center
05:50PM 35.1089 -94.8219 71° East 464 534 35,000  Level Memphis Center
05:51PM 35.1653 -94.6419 69° East 496 571 35,000  Level Memphis Center
05:52PM 35.2372 -94.4881 60° Northeast 508 585 35,000  Level Memphis Center
05:53PM 35.3047 -94.3361 61° Northeast 513 590 35,000  Level Memphis Center
05:54PM 35.3742 -94.1867 60° Northeast 506 582 35,000  Level Memphis Center
05:55PM 35.4433 -94.0369 60° Northeast 506 582 35,000  Level Memphis Center
05:56PM 35.5103 -93.8894 61° Northeast 501 577 35,000  Level Memphis Center
05:57PM 35.5728 -93.7392 63° Northeast 496 571 35,000  Level Memphis Center
05:58PM 35.6372 -93.5936 61° Northeast 491 565 35,000  Level Memphis Center
05:59PM 35.6992 -93.4478 62° Northeast 486 559 35,000  Level Memphis Center
06:00PM 35.7611 -93.3017 62° Northeast 486 559 35,000  Level Memphis Center
06:01PM 35.8247 -93.1606 61° Northeast 480 552 35,000  Level Memphis Center
06:02PM 35.8794 -93.0444 60° Northeast 474 545 35,000  Level Memphis Center
06:03PM 35.9475 -92.8825 63° Northeast 474 545 35,000  Level Memphis Center
06:04PM 36.0089 -92.7356 63° Northeast 474 545 35,000  Level Memphis Center
06:05PM 36.0678 -92.5883 64° Northeast 474 545 35,000  Level Memphis Center
06:06PM 36.1286 -92.4436 62° Northeast 474 545 35,000  Level Memphis Center
06:07PM 36.1872 -92.3011 63° Northeast 468 539 35,000  Level Memphis Center
06:08PM 36.2478 -92.1533 63° Northeast 468 539 35,000  Level Memphis Center
06:09PM 36.3061 -92.0131 63° Northeast 463 533 35,000  Level Memphis Center
06:10PM 36.3642 -91.8750 62° Northeast 453 521 35,000  Level Memphis Center
06:11PM 36.4200 -91.7239 65° Northeast 447 514 35,000  Level Memphis Center
06:12PM 36.4758 -91.5828 64° Northeast 447 514 35,000  Level Memphis Center
06:13PM 36.5292 -91.4544 63° Northeast 447 514 35,000  Level Memphis Center
06:14PM 36.5886 -91.3053 64° Northeast 453 521 35,000  Level Memphis Center
06:15PM 36.6481 -91.1586 63° Northeast 465 535 35,000  Level Memphis Center
06:16PM 36.7114 -91.0014 63° Northeast 460 529 35,000  Level Memphis Center
06:17PM 36.7683 -90.8542 64° Northeast 460 529 35,000  Level Memphis Center
06:18PM 36.8231 -90.7094 65° Northeast 460 529 35,000  Level Memphis Center
06:19PM 36.8839 -90.5619 63° Northeast 460 529 35,000  Level Memphis Center
06:20PM 36.9403 -90.4192 64° Northeast 460 529 35,000  Level Memphis Center
06:21PM 36.9964 -90.2711 65° Northeast 460 529 35,000  Level Memphis Center
06:22PM 37.0547 -90.1231 64° Northeast 460 529 35,000  Level Memphis Center
06:23PM 37.1106 -89.9797 64° Northeast 460 529 35,000  Level Memphis Center
06:24PM 37.1767 -89.8467 58° Northeast 460 529 35,000  Level Memphis Center
06:25PM 37.2678 -89.7314 45° Northeast 456 525 35,000  Level Memphis Center
06:26PM 37.3828 -89.5864 45° Northeast 467 537 35,000  Level Kansas City Center
06:27PM 37.4714 -89.4644 48° Northeast 470 541 35,000  Level Kansas City Center
06:28PM 37.5169 -89.3133 69° East 461 531 35,000  Level Kansas City Center
06:29PM 37.5583 -89.1617 71° East 457 526 35,000  Level Kansas City Center
06:30PM 37.6003 -89.0086 71° East 461 531 35,000  Level Kansas City Center
06:31PM 37.6658 -88.8278 65° Northeast 471 542 35,000  Level Kansas City Center
06:32PM 37.7492 -88.6947 52° Northeast 483 556 35,000  Level Kansas City Center
06:33PM 37.8331 -88.5653 51° Northeast 479 551 35,000  Level Kansas City Center
06:34PM 37.9108 -88.4269 54° Northeast 480 552 35,000  Level Kansas City Center
06:35PM 37.9719 -88.2781 62° Northeast 478 550 35,000  Level Kansas City Center
06:36PM 38.0339 -88.1308 62° Northeast 473 544 35,000  Level Kansas City Center
06:37PM 38.0978 -87.9833 61° Northeast 475 547 35,000  Level Indianapolis Center
06:38PM 38.1611 -87.8328 62° Northeast 480 552 35,000 -180 Level Indianapolis Center
06:39PM 38.2247 -87.6831 62° Northeast 480 552 34,700 -1,080 Descending Indianapolis Center
06:40PM 38.2889 -87.5294 62° Northeast 487 560 32,800 -1,920 Descending Indianapolis Center
06:41PM 38.3547 -87.3742 62° Northeast 493 567 30,800 -1,680 Descending Indianapolis Center
06:42PM 38.4206 -87.2175 62° Northeast 491 565 29,400 -1,620 Descending Indianapolis Center
06:43PM 38.4847 -87.0589 63° Northeast 489 563 27,500 -1,200 Descending Indianapolis Center
06:44PM 38.5508 -86.8994 62° Northeast 498 573 27,000 -300 Descending Indianapolis Center
06:45PM 38.6139 -86.7444 62° Northeast 488 562 27,000  Level Indianapolis Center
06:46PM 38.6772 -86.5894 62° Northeast 489 563 27,000  Level Indianapolis Center
06:47PM 38.7544 -86.4019 62° Northeast 492 566 27,000  Level Indianapolis Center
06:48PM 38.8178 -86.2439 63° Northeast 495 570 27,000  Level Indianapolis Center
06:50PM 38.8817 -86.0847 63° Northeast 499 574 27,000  Level Indianapolis Center
06:51PM 38.9383 -85.9425 63° Northeast 501 577 27,000  Level Indianapolis Center
06:52PM 39.0133 -85.7517 63° Northeast 502 578 27,000  Level Indianapolis Center
06:53PM 39.0758 -85.5933 63° Northeast 501 577 27,000  Level Indianapolis Center
06:54PM 39.1381 -85.4356 63° Northeast 499 574 27,000  Level Indianapolis Center
06:55PM 39.1992 -85.2778 63° Northeast 497 572 27,000  Level Indianapolis Center
06:56PM 39.2606 -85.1203 63° Northeast 495 570 27,000  Level Indianapolis Center
06:57PM 39.3214 -84.9614 64° Northeast 496 571 27,000  Level Indianapolis Center
06:58PM 39.3950 -84.7706 63° Northeast 497 572 27,000  Level Indianapolis Center
06:59PM 39.4575 -84.6092 63° Northeast 499 574 27,000  Level Indianapolis Center
07:00PM 39.5183 -84.4475 64° Northeast 496 571 27,000  Level Indianapolis Center
07:01PM 39.5800 -84.2850 64° Northeast 498 573 27,000  Level Indianapolis Center
07:02PM 39.6411 -84.1219 64° Northeast 498 573 27,000 -60 Level Indianapolis Center
07:03PM 39.7153 -83.9708 57° Northeast 494 568 26,900 -660 Descending Indianapolis Center
07:04PM 39.8208 -83.8553 40° Northeast 489 563 25,700 -1,440 Descending Indianapolis Center
07:05PM 39.9247 -83.7447 39° Northeast 476 548 24,000 -840 Descending Indianapolis Center
07:06PM 40.0256 -83.6369 39° Northeast 460 529 24,000 -300 Level Indianapolis Center
07:07PM 40.1269 -83.5261 40° Northeast 464 534 23,400 -1,320 Descending Indianapolis Center
07:08PM 40.2258 -83.4178 40° Northeast 458 527 21,400 -2,100 Descending Indianapolis Center
07:09PM 40.3311 -83.2833 44° Northeast 449 517 19,100 -1,920 Descending Indianapolis Center
07:10PM 40.4161 -83.1739 44° Northeast 426 490 17,500 -1,800 Descending Indianapolis Center
07:11PM 40.5003 -83.0661 44° Northeast 419 482 15,500 -1,920 Descending Indianapolis Center
07:12PM 40.5864 -82.9567 44° Northeast 434 499 13,600 -1,860 Descending Indianapolis Center
07:13PM 40.6661 -82.8547 44° Northeast 398 458 11,700 -1,740 Descending Indianapolis Center
07:14PM 40.7433 -82.7528 45° Northeast 391 450 10,100 -840 Descending Indianapolis Center
07:15PM 40.8208 -82.6506 45° Northeast 391 450 10,000 -60 Descending Indianapolis Center
07:16PM 40.8750 -82.5822 44° Northeast 387 445 10,000  Level Cleveland Center
07:17PM 40.9392 -82.4989 44° Northeast 390 449 10,000  Level Cleveland Center
07:18PM 41.0200 -82.3886 46° Northeast 398 458 10,000  Level Cleveland Center
07:19PM 41.1008 -82.2861 44° Northeast 395 455 10,000  Level Cleveland Center
07:20PM 41.1733 -82.1858 46° Northeast 368 423 10,000 -660 Level Cleveland Center
07:21PM 41.2369 -82.1044 44° Northeast 297 342 8,700 -1,440 Descending Cleveland Center
07:22PM 41.2922 -82.0147 51° Northeast 297 342 7,000 -840 Descending Cleveland Center
07:23PM 41.3269 -81.9075 67° East 287 330 7,000  Level Cleveland Center
07:24PM 41.3486 -81.8333 69° East 292 336 7,000  Level Cleveland Center
07:24PM 41.3592 -81.8086 60° Northeast 282 325 7,000 -1,020 Level Cleveland Center
07:25PM 41.3786 -81.7453 68° East 250 288 6,000 -1,800 Descending Cleveland Center
07:26PM 41.4294 -81.6658 50° Northeast 249 287 3,800 -1,500 Descending Cleveland Center
07:27PM 41.4856 -81.6781 351° North 215 247 3,000 -540 Descending Cleveland Center
07:28PM 41.4850 -81.7417 269° West 200 230 2,800 -600 Descending Cleveland Center
07:29PM 41.4533 -81.7883 228° Southwest 159 183 1,900 -780 Descending Cleveland Center
07:30PM 41.4258 -81.8319 230° Southwest 135 155 1,200 -660 Descending Cleveland Center